الصفحة الرئيسية
METAR-TAF:

METAR-TAF

مطار :

مطار عمان المدني

عمان, الأردن

دائرة عرض: 31-59N, خط طول: 035-59E, ارتفاع: 767 متر

مراقبة الطقس الحالي

تاريخ ووقت الإصدار 56 دقيقة قبل الساعة 22:00UTC
رياح هادئة
درجة الحرارة 23°درجة مئوية
الرطوبة 50%
ضغط 1016 hPa
الرؤية: 6000 متر

METAR: OJAM 242200Z 00000KT 6000 NSC 23/12 Q1016 NOSIG

زمن: 01:56 (22:56 UTC)

توقعات

تاريخ ووقت الإصدار 6ساعات و 6 دقيقة قبل الساعة 16:50UTC
التوقعات صالحة من24 الساعة 18 UTC إلى 25 الساعة 24 UTC
ريح 2 عقدةمن اتجاهات متغيرة
الرؤية: 7000 متر
نظرية الاحتمالات 30%
من 25 الساعة 02 UTC إلى 25 الساعة 07 UTC
الرؤية: 4000 متر
العجاج
أصبح
من 25 الساعة 07 UTC إلى 25 الساعة 09 UTC
ريح 12 عقدة من الشمال الغربي
الرؤية: 5000 متر
العجاج

TAF: OJAM 241650Z 2418/2524 VRB02KT 7000 NSC PROB30 2502/2507 4000 HZ BECMG 2507/2509 31012KT 5000 HZ NSC

أرصاد الطقس والتوقعات من أكثر من 4000 مطار (تقارير الطقس للمطار METAR والتنبؤ بالطقس بالمطارTAF).

المحطات المتاحة هي النقط الصفراء والحمراء على الخريطة.

حرك المؤشر فوق النقطة لمعرفة اسم المحطة.

ثم انقر لمعرفة أرصاد وتوقعات الطقس.

لتغيير الخارطة: اضغط على الأزرار الخضراء مع رمز الصليب الأسود للتكبير. على الزر الأخضر مع شرطة للتصغير، أو على الأسهم الخضراء للخرائط المجاورة.


METAR-TAF: